| Date | Time | Temp. (oF) | Dew Point (oF) | Rel. Hum. (%) | Press. (in.) | Wind Dir. (deg.) | Wind Speed (mph) | Hourly Rainfall (i n.) |
|
|---|---|---|---|---|---|---|---|---|---|
| 1 | 12/18 | 24:00 | 36 | 26 | 67 | 30.25 | 290 | 0 | 0.00 |
| 2 | 12/17 | 23:00 | 36 | 25 | 66 | 30.26 | 290 | 1 | 0.00 |
| 3 | 12/17 | 22:00 | 36 | 23 | 60 | 30.27 | 290 | 0 | 0.00 |
| 4 | 12/17 | 21:00 | 36 | 24 | 63 | 30.27 | 290 | 0 | 0.00 |
| 5 | 12/17 | 20:00 | 36 | 22 | 57 | 30.26 | 290 | 0 | 0.00 |
| 6 | 12/17 | 19:00 | 35 | 20 | 56 | 30.26 | 290 | 0 | 0.00 |
| 7 | 12/17 | 18:00 | 36 | 20 | 53 | 30.26 | 290 | 0 | 0.00 |
| 8 | 12/17 | 17:00 | 38 | 18 | 45 | 30.26 | 290 | 1 | 0.00 |
| 9 | 12/17 | 16:00 | 42 | 17 | 37 | 30.25 | 310 | 0 | 0.00 |
| 10 | 12/17 | 15:00 | 43 | 14 | 31 | 30.25 | 300 | 9 | 0.00 |
| 11 | miss | miss | miss | miss | miss | miss | miss | miss | |
| 12 | 12/17 | 13:00 | 43 | 14 | 32 | 30.24 | 290 | 7 | 0.00 |
| 13 | 12/17 | 12:00 | 41 | 15 | 35 | 30.25 | 300 | 4 | 0.00 |
| 14 | 12/17 | 11:00 | 40 | 16 | 38 | 30.27 | 290 | 7 | 0.00 |
| 15 | 12/17 | 10:00 | 37 | 19 | 48 | 30.28 | 220 | 7 | 0.00 |
| 16 | 12/17 | 09:00 | 33 | 22 | 64 | 30.26 | 290 | 2 | 0.00 |
| 17 | 12/17 | 08:00 | 30 | 22 | 72 | 30.26 | 330 | 1 | 0.00 |
| 18 | 12/17 | 07:00 | 31 | 22 | 69 | 30.22 | 330 | 0 | 0.00 |
| 19 | 12/17 | 06:00 | 31 | 22 | 69 | 30.21 | 60 | 1 | 0.00 |
| 20 | 12/17 | 05:00 | 33 | 21 | 62 | 30.20 | 290 | 4 | 0.00 |
| 21 | 12/17 | 04:00 | 31 | 23 | 73 | 30.20 | 270 | 0 | 0.00 |
| 22 | 12/17 | 03:00 | 30 | 23 | 78 | 30.21 | 270 | 1 | 0.00 |
| 23 | 12/17 | 02:00 | 31 | 24 | 75 | 30.17 | 270 | 0 | 0.00 |
| 24 | 12/17 | 01:00 | 31 | 24 | 76 | 30.15 | 270 | 0 | 0.00 |